ejoo.ir alexa rank chart, ejoo.ir alexa rank daily changes

ejoo.ir alexa rank chart, ejoo.ir alexa rank daily changes

ejoo.ir
Actual rank:
169 467

RANK HISTORY

Date Rank Diff
2017/01/20 169 467 +536
2017/01/19 168 931 -3 095
2017/01/18 172 026 +635
2017/01/17 171 391 -1 489
2017/01/16 172 880 -4 182
2017/01/15 177 062 +514
2017/01/14 176 548 -2 300
2017/01/13 178 848 -1 097
2017/01/12 179 945 -2 534
2017/01/11 182 479 -1 550
2017/01/10 184 029 -851
2017/01/09 184 880 -2 958
2017/01/08 187 838 -5 337
2017/01/07 193 175 -2 738
2017/01/06 195 913 -1 088
2017/01/05 197 001 -14 398
2017/01/04 211 399 -6 564
2017/01/03 217 963 -2 974
2017/01/02 220 937 -8 371
2017/01/01 229 308 -3 754
2016/12/31 233 062 -1 525
2016/12/30 234 587 +6 878
2016/12/29 227 709 +3 012
2016/12/28 224 697 -5 177
2016/12/27 229 874 -1 187
2016/12/26 231 061 +1 351
2016/12/25 229 710 +2 370
2016/12/24 227 340 +1 064
2016/12/23 226 276 -1 278
2016/12/22 227 554 +9 317
2016/12/21 218 237 +5 821
2016/12/20 212 416 +2 606
2016/12/19 209 810 -757
2016/12/18 210 567 -2 268
2016/12/17 212 835 -3 202
2016/12/16 216 037 +3 904
2016/12/15 212 133 +2 966
2016/12/14 209 167 +489
2016/12/13 208 678 -5 783
2016/12/12 214 461 +8 877
2016/12/11 205 584 +6 649
2016/12/10 198 935 -3 365
2016/12/09 202 300 +6 982
2016/12/08 195 318 +4 611
2016/12/07 190 707 +1 556
2016/12/06 189 151 +198
2016/12/05 188 953 -5 456
2016/12/04 194 409 +1 440
2016/12/02 192 969 +3 076
2016/12/01 189 893 +5 565
2016/11/30 184 328 -1 564
2016/11/29 185 892 -2 545
2016/11/28 188 437 +6 286
2016/11/27 182 151 -1 076
2016/11/26 183 227 -2 519
2016/11/25 185 746 +344
2016/11/24 185 402 +2 126
2016/11/23 183 276

WIDGET FOR YOUR SITE

DOMAINS WITH THE NEAREST RANK

Domain Rank
rastimul.com.ua 169 462
hafeezcentre.pk 169 463
khmer-plus.com 169 464
myxxxpass.com 169 465
audiokinetic.com 169 466
ejoo.ir 169 467
musicheaven.gr 169 468
rootreport.com 169 469
thecontentauthority.com 169 470
mouldingcrpcsfye.online 169 471
connexionsafe.com 169 472

DOMAINS WITH THE NEAREST RANK BY TLD .ir

Domain Rank
sazandegi.ir 168 676
vstsaz.ir 168 744
nazak.ir 168 868
marlik.ir 169 303
payline.ir 169 367
ejoo.ir 169 467
mrmaterial.ir 169 477
90music.ir 169 520
alfadl.ir 169 646
edupaper.ir 169 681
rayana.ir 169 786